METAR Data
IDs: Format: Raw Decoded Include TAF

Data at: 1702 UTC 20 Sep 2018

METAR for:KSJC (San Jose Intl Arpt, CA, US)
Text:KSJC 201653Z 00000KT 10SM CLR 21/09 A2988 RMK AO2 SLP119 T02110094
Temperature: 21.1°C ( 70°F)
Dewpoint: 9.4°C ( 49°F) [RH = 47%]
Pressure (altimeter):29.88 inches Hg (1011.9 mb) [Sea level pressure: 1011.9 mb]
Winds:calm
Visibility:10 or more sm (16+ km)
Ceiling:at least 12,000 feet AGL
Clouds:sky clear below 12,000 feet AGL
Text:KSJC 201553Z 00000KT 10SM CLR 18/10 A2988 RMK AO2 SLP118 T01780100
Temperature: 17.8°C ( 64°F)
Dewpoint: 10.0°C ( 50°F) [RH = 60%]
Pressure (altimeter):29.88 inches Hg (1011.9 mb) [Sea level pressure: 1011.8 mb]
Winds:calm
Visibility:10 or more sm (16+ km)
Ceiling:at least 12,000 feet AGL
Clouds:sky clear below 12,000 feet AGL
Text:KSJC 201453Z 18003KT 10SM FEW004 15/09 A2987 RMK AO2 SLP115 FU FEW004 T01500089 53016
Temperature: 15.0°C ( 59°F)
Dewpoint: 8.9°C ( 48°F) [RH = 67%]
Pressure (altimeter):29.87 inches Hg (1011.6 mb) [Sea level pressure: 1011.5 mb]
Winds:from the S (180 degrees) at 3 MPH (3 knots; 1.5 m/s)
Visibility:10 or more sm (16+ km)
Ceiling:at least 12,000 feet AGL
Clouds: few clouds at 400 feet AGL
Text:KSJC 201353Z 00000KT 10SM CLR 13/09 A2985 RMK AO2 SLP108 T01280089
Temperature: 12.8°C ( 55°F)
Dewpoint: 8.9°C ( 48°F) [RH = 77%]
Pressure (altimeter):29.85 inches Hg (1010.9 mb) [Sea level pressure: 1010.8 mb]
Winds:calm
Visibility:10 or more sm (16+ km)
Ceiling:at least 12,000 feet AGL
Clouds:sky clear below 12,000 feet AGL
Text:KSJC 201253Z 00000KT 10SM CLR 14/09 A2984 RMK AO2 SLP105 T01390094
Temperature: 13.9°C ( 57°F)
Dewpoint: 9.4°C ( 49°F) [RH = 74%]
Pressure (altimeter):29.84 inches Hg (1010.6 mb) [Sea level pressure: 1010.5 mb]
Winds:calm
Visibility:10 or more sm (16+ km)
Ceiling:at least 12,000 feet AGL
Clouds:sky clear below 12,000 feet AGL
Text:KSJC 201153Z AUTO 00000KT 10SM CLR 14/09 A2983 RMK AO2 SLP100 T01390094 10183 20133 50000
Temperature: 13.9°C ( 57°F)
Dewpoint: 9.4°C ( 49°F) [RH = 74%]
Pressure (altimeter):29.83 inches Hg (1010.2 mb) [Sea level pressure: 1010.0 mb]
Winds:calm
Visibility:10 or more sm (16+ km)
Ceiling:at least 12,000 feet AGL
Clouds:sky clear below 12,000 feet AGL
QC Flag:automated observation with no human augmentation
Text:KSJC 201053Z AUTO 15003KT 10SM CLR 14/11 A2983 RMK AO2 SLP101 T01390106
Temperature: 13.9°C ( 57°F)
Dewpoint: 10.6°C ( 51°F) [RH = 80%]
Pressure (altimeter):29.83 inches Hg (1010.2 mb) [Sea level pressure: 1010.1 mb]
Winds:from the SSE (150 degrees) at 3 MPH (3 knots; 1.5 m/s)
Visibility:10 or more sm (16+ km)
Ceiling:at least 12,000 feet AGL
Clouds:sky clear below 12,000 feet AGL
QC Flag:automated observation with no human augmentation
Text:KSJC 200953Z AUTO 00000KT 10SM CLR 15/11 A2983 RMK AO2 SLP102 T01500106
Temperature: 15.0°C ( 59°F)
Dewpoint: 10.6°C ( 51°F) [RH = 75%]
Pressure (altimeter):29.83 inches Hg (1010.2 mb) [Sea level pressure: 1010.2 mb]
Winds:calm
Visibility:10 or more sm (16+ km)
Ceiling:at least 12,000 feet AGL
Clouds:sky clear below 12,000 feet AGL
QC Flag:automated observation with no human augmentation
Text:KSJC 200853Z AUTO 24003KT 10SM CLR 16/12 A2983 RMK AO2 SLP100 T01560117 55004
Temperature: 15.6°C ( 60°F)
Dewpoint: 11.7°C ( 53°F) [RH = 78%]
Pressure (altimeter):29.83 inches Hg (1010.2 mb) [Sea level pressure: 1010.0 mb]
Winds:from the WSW (240 degrees) at 3 MPH (3 knots; 1.5 m/s)
Visibility:10 or more sm (16+ km)
Ceiling:at least 12,000 feet AGL
Clouds:sky clear below 12,000 feet AGL
QC Flag:automated observation with no human augmentation
Text:KSJC 200753Z AUTO 00000KT 10SM CLR 17/13 A2982 RMK AO2 SLP096 T01670128 402670106
Temperature: 16.7°C ( 62°F)
Dewpoint: 12.8°C ( 55°F) [RH = 78%]
Pressure (altimeter):29.82 inches Hg (1009.9 mb) [Sea level pressure: 1009.6 mb]
Winds:calm
Visibility:10 or more sm (16+ km)
Ceiling:at least 12,000 feet AGL
Clouds:sky clear below 12,000 feet AGL
QC Flag:automated observation with no human augmentation
Text:KSJC 200653Z 00000KT 10SM FEW024 18/13 A2983 RMK AO2 SLP101 LAST T01780128
Temperature: 17.8°C ( 64°F)
Dewpoint: 12.8°C ( 55°F) [RH = 73%]
Pressure (altimeter):29.83 inches Hg (1010.2 mb) [Sea level pressure: 1010.1 mb]
Winds:calm
Visibility:10 or more sm (16+ km)
Ceiling:at least 12,000 feet AGL
Clouds: few clouds at 2400 feet AGL
Text:KSJC 200553Z 00000KT 10SM FEW006 18/12 A2984 RMK AO2 SLP104 FU FEW006 T01780117 10256 20178 50004
Temperature: 17.8°C ( 64°F)
Dewpoint: 11.7°C ( 53°F) [RH = 67%]
Pressure (altimeter):29.84 inches Hg (1010.6 mb) [Sea level pressure: 1010.4 mb]
Winds:calm
Visibility:10 or more sm (16+ km)
Ceiling:at least 12,000 feet AGL
Clouds: few clouds at 600 feet AGL